createdAt,value
2023-04-14T00:01:51.927Z,48.70
2023-04-14T00:04:37.574Z,48.69
2023-04-14T00:07:22.963Z,48.73
2023-04-14T00:10:08.572Z,48.84
2023-04-14T00:12:55.389Z,48.70
2023-04-14T00:15:44.239Z,48.58
2023-04-14T00:18:30.073Z,48.86
2023-04-14T00:21:15.949Z,48.64
2023-04-14T00:24:01.217Z,48.54
2023-04-14T00:26:46.389Z,48.81
2023-04-14T00:29:31.531Z,48.87
2023-04-14T00:32:17.023Z,48.79
2023-04-14T00:35:03.644Z,48.92
2023-04-14T00:37:49.165Z,48.91
2023-04-14T00:40:34.618Z,49.04
2023-04-14T00:43:20.459Z,48.78
2023-04-14T00:46:07.052Z,49.02
2023-04-14T00:48:52.680Z,49.00
2023-04-14T00:51:38.144Z,48.96
2023-04-14T00:54:25.032Z,49.00
2023-04-14T00:57:10.702Z,49.19
2023-04-14T00:59:59.038Z,49.04
2023-04-14T01:02:44.680Z,49.22
2023-04-14T01:05:30.537Z,49.14
2023-04-14T01:08:17.153Z,49.05
2023-04-14T01:11:28.055Z,49.07
2023-04-14T01:14:35.817Z,49.12
2023-04-14T01:17:59.725Z,49.16
2023-04-14T01:20:52.903Z,49.20
2023-04-14T01:23:47.853Z,49.13
2023-04-14T01:26:34.637Z,49.21
2023-04-14T01:29:39.606Z,49.24
2023-04-14T01:32:27.282Z,49.36
2023-04-14T01:35:20.757Z,49.21
2023-04-14T01:38:10.880Z,49.13
2023-04-14T01:40:59.379Z,49.40
2023-04-14T01:43:49.862Z,49.22
2023-04-14T01:46:36.644Z,49.27
2023-04-14T01:49:25.290Z,49.33
2023-04-14T01:52:13.566Z,49.30
2023-04-14T01:55:01.494Z,49.32
2023-04-14T01:57:49.705Z,49.30
2023-04-14T02:00:38.287Z,49.25
2023-04-14T02:03:25.833Z,49.52
2023-04-14T02:06:13.476Z,49.54
2023-04-14T02:09:03.969Z,49.46
2023-04-14T02:11:51.612Z,49.53
2023-04-14T02:14:40.893Z,49.26
2023-04-14T02:17:26.711Z,49.39
2023-04-14T02:20:14.746Z,49.42
2023-04-14T02:23:00.771Z,49.44
2023-04-14T02:26:00.463Z,49.53
2023-04-14T02:28:51.266Z,49.34
2023-04-14T02:31:42.550Z,49.44
2023-04-14T02:34:31.961Z,49.57
2023-04-14T02:37:23.169Z,49.56
2023-04-14T02:40:15.449Z,49.56
2023-04-14T02:43:05.500Z,49.58
2023-04-14T02:45:52.771Z,49.68
2023-04-14T02:48:43.008Z,49.70
2023-04-14T02:51:31.842Z,49.52
2023-04-14T02:54:19.604Z,49.85
2023-04-14T02:57:08.330Z,48.68
2023-04-14T02:59:58.977Z,49.14
2023-04-14T03:02:46.354Z,49.49
2023-04-14T03:05:33.077Z,49.47
2023-04-14T03:08:27.409Z,49.42
2023-04-14T03:11:14.878Z,49.48
2023-04-14T03:14:01.199Z,49.67
2023-04-14T03:16:48.486Z,49.63
2023-04-14T03:19:36.536Z,49.61
2023-04-14T03:22:26.678Z,49.52
2023-04-14T03:25:12.464Z,49.83
2023-04-14T03:28:40.128Z,49.75
2023-04-14T03:31:32.707Z,49.89
2023-04-14T03:34:20.885Z,49.80
2023-04-14T03:37:11.543Z,50.00
2023-04-14T03:40:00.791Z,50.66
2023-04-14T03:42:50.715Z,50.45
2023-04-14T03:45:40.602Z,50.21
2023-04-14T03:48:29.892Z,50.25
2023-04-14T03:51:17.199Z,50.24
2023-04-14T03:54:05.822Z,49.96
2023-04-14T03:56:56.131Z,50.28
2023-04-14T03:59:44.669Z,49.84
2023-04-14T04:02:31.282Z,49.83
2023-04-14T04:05:17.748Z,49.82
2023-04-14T04:08:05.505Z,49.95
2023-04-14T04:10:52.331Z,49.73
2023-04-14T04:13:39.351Z,49.64
2023-04-14T04:16:27.761Z,49.76
2023-04-14T04:19:15.070Z,49.84
2023-04-14T04:22:02.894Z,50.16
2023-04-14T04:24:48.862Z,50.96
2023-04-14T04:27:40.824Z,50.91
2023-04-14T04:30:35.506Z,50.69
2023-04-14T04:33:22.695Z,50.41
2023-04-14T04:36:10.548Z,50.52
2023-04-14T04:39:01.046Z,50.52
2023-04-14T04:41:51.895Z,50.62
2023-04-14T04:44:37.623Z,50.69
2023-04-14T04:47:23.509Z,51.26
2023-04-14T04:50:08.815Z,50.62
2023-04-14T04:52:54.222Z,50.44
2023-04-14T04:55:41.282Z,50.19
2023-04-14T04:58:26.804Z,49.92
2023-04-14T05:01:12.298Z,49.64
2023-04-14T05:03:57.706Z,49.88
2023-04-14T05:06:42.940Z,49.71
2023-04-14T05:09:28.043Z,49.72
2023-04-14T05:12:13.472Z,48.08
2023-04-14T05:14:58.901Z,49.24
2023-04-14T05:17:44.130Z,49.39
2023-04-14T05:20:29.579Z,49.35
2023-04-14T05:23:14.851Z,49.71
2023-04-14T05:26:16.369Z,49.65
2023-04-14T05:29:06.322Z,49.75
2023-04-14T05:31:51.569Z,49.56
2023-04-14T05:34:36.971Z,49.60
2023-04-14T05:37:22.110Z,49.72
2023-04-14T05:40:08.143Z,49.59
2023-04-14T05:42:57.181Z,49.56
2023-04-14T05:45:43.169Z,49.44
2023-04-14T05:48:30.779Z,49.65
2023-04-14T05:51:16.725Z,49.67
2023-04-14T05:54:02.459Z,49.66
2023-04-14T05:56:48.460Z,49.64
2023-04-14T05:59:34.018Z,49.74
2023-04-14T06:02:19.395Z,49.79
2023-04-14T06:05:07.551Z,49.63
2023-04-14T06:07:52.871Z,50.07
2023-04-14T06:10:38.244Z,49.91
2023-04-14T06:13:23.862Z,49.79
2023-04-14T06:16:09.265Z,49.75
2023-04-14T06:18:54.438Z,49.71
2023-04-14T06:21:39.640Z,49.92
2023-04-14T06:24:27.801Z,49.79
2023-04-14T06:27:14.745Z,49.88
2023-04-14T06:30:02.307Z,49.93
2023-04-14T06:32:51.513Z,49.88
2023-04-14T06:35:37.116Z,49.91
2023-04-14T06:38:22.589Z,49.85
2023-04-14T06:41:07.859Z,49.90
2023-04-14T06:43:53.238Z,49.78
2023-04-14T06:46:39.513Z,49.82
2023-04-14T06:49:25.365Z,49.84
2023-04-14T06:52:10.575Z,49.76
2023-04-14T06:54:56.052Z,49.89
2023-04-14T06:57:41.570Z,49.81
2023-04-14T07:00:26.663Z,49.96
2023-04-14T07:03:11.889Z,49.94
2023-04-14T07:06:12.092Z,50.04
2023-04-14T07:08:57.874Z,49.96
2023-04-14T07:11:44.737Z,49.78
2023-04-14T07:14:32.425Z,50.03
2023-04-14T07:17:19.027Z,49.96
2023-04-14T07:20:05.372Z,49.89
2023-04-14T07:22:51.028Z,49.98
2023-04-14T07:25:40.325Z,49.97
2023-04-14T07:28:26.893Z,50.18
2023-04-14T07:31:12.703Z,49.98
2023-04-14T07:33:57.677Z,49.99
2023-04-14T07:36:42.996Z,49.98
2023-04-14T07:39:28.421Z,49.94
2023-04-14T07:42:13.689Z,49.86
2023-04-14T07:44:59.429Z,49.79
2023-04-14T07:47:45.030Z,49.82
2023-04-14T07:50:31.897Z,50.00
2023-04-14T07:53:17.208Z,50.00
2023-04-14T07:56:02.411Z,49.95
2023-04-14T07:58:47.881Z,49.89
2023-04-14T08:01:33.413Z,49.84
2023-04-14T08:04:18.868Z,49.92
2023-04-14T08:07:04.272Z,49.87
2023-04-14T08:09:50.623Z,49.87
2023-04-14T08:12:36.153Z,49.93
2023-04-14T08:15:21.325Z,49.98
2023-04-14T08:18:06.848Z,49.94
2023-04-14T08:20:51.983Z,50.20
2023-04-14T08:23:37.812Z,50.08
2023-04-14T08:26:23.118Z,50.24
2023-04-14T08:29:08.395Z,50.43
2023-04-14T08:31:56.556Z,50.48
2023-04-14T08:35:34.878Z,50.36
2023-04-14T08:37:51.312Z,50.42
2023-04-14T08:40:39.344Z,50.28
2023-04-14T08:43:24.791Z,50.16
2023-04-14T08:46:12.232Z,50.20
2023-04-14T08:49:07.362Z,50.13
2023-04-14T08:51:54.020Z,50.16
2023-04-14T08:54:43.504Z,50.11
2023-04-14T08:57:31.607Z,50.06
2023-04-14T09:00:18.733Z,50.00
2023-04-14T09:03:04.792Z,50.07
2023-04-14T09:05:51.812Z,50.04
2023-04-14T09:08:38.351Z,49.95
2023-04-14T09:11:24.177Z,50.07
2023-04-14T09:14:14.396Z,50.14
2023-04-14T09:17:00.882Z,51.04
2023-04-14T09:20:36.756Z,50.94
2023-04-14T09:22:53.546Z,50.86
2023-04-14T09:25:40.419Z,50.79
2023-04-14T09:28:25.959Z,50.61
2023-04-14T09:31:11.501Z,50.52
2023-04-14T09:33:58.119Z,50.65
2023-04-14T09:37:01.087Z,50.56
2023-04-14T09:39:51.470Z,50.70
2023-04-14T09:42:42.714Z,50.68
2023-04-14T09:45:44.919Z,50.69
2023-04-14T09:48:30.617Z,50.50
2023-04-14T09:51:16.158Z,50.66
2023-04-14T09:54:03.791Z,50.50
2023-04-14T09:56:49.384Z,50.71
2023-04-14T09:59:38.798Z,50.78
2023-04-14T10:02:26.074Z,50.47
2023-04-14T10:05:12.713Z,50.57
2023-04-14T10:08:03.841Z,50.47
2023-04-14T10:10:49.124Z,50.41
2023-04-14T10:13:34.193Z,50.51
2023-04-14T10:16:19.813Z,50.45
2023-04-14T10:19:05.820Z,50.46
2023-04-14T10:21:52.801Z,50.29
2023-04-14T10:24:39.908Z,50.20
2023-04-14T10:27:30.812Z,50.32
2023-04-14T10:30:16.874Z,50.38
2023-04-14T10:33:02.535Z,50.44
2023-04-14T10:35:59.458Z,50.30
2023-04-14T10:38:46.610Z,50.37
2023-04-14T10:41:44.122Z,50.45
2023-04-14T10:44:32.402Z,50.29
2023-04-14T10:47:25.058Z,50.20
2023-04-14T10:50:14.934Z,50.40
2023-04-14T10:53:08.062Z,50.30
2023-04-14T10:55:59.459Z,50.43
2023-04-14T10:58:56.708Z,50.40
2023-04-14T11:01:42.324Z,50.39
2023-04-14T11:04:28.056Z,50.36
2023-04-14T11:07:21.714Z,50.37
2023-04-14T11:10:22.512Z,50.42
2023-04-14T11:13:11.947Z,50.38
2023-04-14T11:16:07.347Z,50.31
2023-04-14T11:18:54.596Z,50.40
2023-04-14T11:21:49.870Z,50.23
2023-04-14T11:24:35.705Z,50.30
2023-04-14T11:27:21.061Z,50.41
2023-04-14T11:30:08.585Z,50.40
2023-04-14T11:32:57.306Z,50.27
2023-04-14T11:35:43.056Z,50.21
2023-04-14T11:38:29.788Z,50.22
2023-04-14T11:41:16.350Z,50.23
2023-04-14T11:44:02.130Z,50.32
2023-04-14T11:46:47.600Z,50.56
2023-04-14T11:49:35.562Z,50.31
2023-04-14T11:52:21.897Z,49.85
2023-04-14T11:55:07.795Z,50.18
2023-04-14T11:57:54.903Z,49.96
2023-04-14T12:00:41.132Z,50.14
2023-04-14T12:03:34.214Z,49.99
2023-04-14T12:06:21.334Z,50.11
2023-04-14T12:09:09.024Z,50.17
2023-04-14T12:11:55.585Z,50.26
2023-04-14T12:14:42.838Z,50.24
2023-04-14T12:17:28.468Z,50.22
2023-04-14T12:20:16.061Z,50.53
2023-04-14T12:23:04.233Z,50.30
2023-04-14T12:25:53.028Z,50.44
2023-04-14T12:28:42.024Z,50.51
2023-04-14T12:31:32.741Z,48.68
2023-04-14T12:34:25.335Z,49.40
2023-04-14T12:37:12.192Z,49.80
2023-04-14T12:40:00.763Z,49.85
2023-04-14T12:42:51.649Z,49.63
2023-04-14T12:45:48.455Z,49.53
2023-04-14T12:48:48.355Z,49.63
2023-04-14T12:51:38.936Z,49.53
2023-04-14T12:54:24.761Z,49.62
2023-04-14T12:57:10.369Z,49.46
2023-04-14T12:59:55.637Z,49.84
2023-04-14T13:02:44.635Z,49.64
2023-04-14T13:05:31.434Z,49.96
2023-04-14T13:08:23.660Z,49.70
2023-04-14T13:11:10.222Z,49.54
2023-04-14T13:13:55.438Z,49.74
2023-04-14T13:16:40.656Z,49.76
2023-04-14T13:19:26.546Z,49.57
2023-04-14T13:22:14.341Z,49.69
2023-04-14T13:25:00.475Z,49.74
2023-04-14T13:27:45.906Z,49.63
2023-04-14T13:30:31.199Z,49.58
2023-04-14T13:33:21.755Z,50.25
2023-04-14T13:36:13.128Z,50.64
2023-04-14T13:38:58.926Z,50.89
2023-04-14T13:41:46.767Z,51.13
2023-04-14T13:44:33.569Z,50.74
2023-04-14T13:47:24.840Z,50.72
2023-04-14T13:50:11.889Z,50.43
2023-04-14T13:53:00.573Z,48.46
2023-04-14T13:55:46.082Z,48.05
2023-04-14T13:58:31.660Z,49.12
2023-04-14T14:01:17.125Z,49.59
2023-04-14T14:04:03.225Z,49.41
2023-04-14T14:06:49.008Z,49.32
2023-04-14T14:09:35.757Z,49.57
2023-04-14T14:12:21.378Z,49.72
2023-04-14T14:15:07.980Z,49.85
2023-04-14T14:17:55.134Z,49.56
2023-04-14T14:20:40.532Z,49.74
2023-04-14T14:23:26.401Z,49.86
2023-04-14T14:26:38.953Z,49.90
2023-04-14T14:29:25.183Z,50.27
2023-04-14T14:32:10.782Z,49.85
2023-04-14T14:34:59.845Z,49.36
2023-04-14T14:37:47.424Z,49.35
2023-04-14T14:40:34.962Z,49.51
2023-04-14T14:43:23.160Z,49.51
2023-04-14T14:46:09.136Z,49.51
2023-04-14T14:48:54.593Z,47.71
2023-04-14T14:51:40.193Z,47.80
2023-04-14T14:54:25.898Z,48.65
2023-04-14T14:57:11.580Z,48.63
2023-04-14T14:59:57.330Z,48.66
2023-04-14T15:02:42.899Z,48.71
2023-04-14T15:05:28.564Z,48.86
2023-04-14T15:08:13.871Z,49.12
2023-04-14T15:10:59.443Z,49.12
2023-04-14T15:13:45.519Z,49.14
2023-04-14T15:16:31.287Z,49.27
2023-04-14T15:19:17.245Z,49.36
2023-04-14T15:22:02.926Z,49.32
2023-04-14T15:24:48.230Z,49.66
2023-04-14T15:27:33.518Z,49.04
2023-04-14T15:30:21.284Z,49.86
2023-04-14T15:33:06.988Z,49.85
2023-04-14T15:35:52.486Z,49.86
2023-04-14T15:38:40.340Z,49.68
2023-04-14T15:41:26.010Z,49.97
2023-04-14T15:44:11.731Z,50.48
2023-04-14T15:46:57.300Z,50.17
2023-04-14T15:49:42.682Z,50.39
2023-04-14T15:52:34.155Z,50.39
2023-04-14T15:55:19.511Z,50.49
2023-04-14T15:58:05.614Z,50.45
2023-04-14T16:00:51.453Z,50.70
2023-04-14T16:03:38.087Z,50.80
2023-04-14T16:06:23.913Z,50.82
2023-04-14T16:09:09.342Z,51.12
2023-04-14T16:11:54.504Z,50.99
2023-04-14T16:14:40.309Z,51.04
2023-04-14T16:17:25.769Z,51.41
2023-04-14T16:20:14.176Z,51.58
2023-04-14T16:22:59.463Z,51.20
2023-04-14T16:25:49.898Z,51.39
2023-04-14T16:28:35.361Z,51.54
2023-04-14T16:31:20.828Z,51.29
2023-04-14T16:34:06.278Z,51.23
2023-04-14T16:36:52.039Z,51.39
2023-04-14T16:39:37.538Z,51.35
2023-04-14T16:42:24.512Z,51.39
2023-04-14T16:45:10.709Z,51.29
2023-04-14T16:47:56.152Z,51.28
2023-04-14T16:50:42.861Z,51.20
2023-04-14T16:53:28.472Z,51.25
2023-04-14T16:56:27.389Z,51.39
2023-04-14T16:59:13.861Z,51.30
2023-04-14T17:01:59.659Z,51.37
2023-04-14T17:04:45.352Z,51.34
2023-04-14T17:07:30.785Z,51.38
2023-04-14T17:10:17.473Z,51.35
2023-04-14T17:13:04.245Z,51.44
2023-04-14T17:15:58.732Z,51.46
2023-04-14T17:18:53.948Z,51.32
2023-04-14T17:21:40.282Z,51.41
2023-04-14T17:24:27.755Z,51.34
2023-04-14T17:27:14.593Z,51.22
2023-04-14T17:30:05.092Z,51.38
2023-04-14T17:32:51.339Z,51.33
2023-04-14T17:35:38.816Z,49.17
2023-04-14T17:38:38.671Z,46.01
2023-04-14T17:41:25.153Z,47.78
2023-04-14T17:44:12.458Z,49.14
2023-04-14T17:47:01.543Z,49.84
2023-04-14T17:49:46.953Z,49.51
2023-04-14T17:52:37.578Z,49.93
2023-04-14T17:55:27.295Z,50.56
2023-04-14T17:58:14.912Z,51.29
2023-04-14T18:01:04.951Z,51.80
2023-04-14T18:03:50.844Z,52.64
2023-04-14T18:06:37.362Z,52.41
2023-04-14T18:09:23.080Z,52.34
2023-04-14T18:12:08.826Z,53.20
2023-04-14T18:14:56.672Z,53.13
2023-04-14T18:17:43.594Z,53.68
2023-04-14T18:20:32.177Z,53.36
2023-04-14T18:23:22.275Z,53.66
2023-04-14T18:29:01.411Z,53.66
2023-04-14T18:31:49.778Z,53.90
2023-04-14T18:34:37.282Z,53.87
2023-04-14T18:37:22.900Z,53.24
2023-04-14T18:40:09.813Z,53.35
2023-04-14T18:42:57.444Z,53.21
2023-04-14T18:45:50.286Z,52.85
2023-04-14T18:48:41.087Z,52.76
2023-04-14T18:51:29.259Z,52.43
2023-04-14T18:54:17.380Z,52.30
2023-04-14T18:57:07.641Z,52.08
2023-04-14T19:00:09.970Z,51.89
2023-04-14T19:02:58.358Z,51.80
2023-04-14T19:05:45.106Z,51.62
2023-04-14T19:08:35.526Z,51.54
2023-04-14T19:11:22.061Z,51.54
2023-04-14T19:14:08.489Z,51.35
2023-04-14T19:16:54.257Z,51.44
2023-04-14T19:19:41.414Z,51.16
2023-04-14T19:22:31.275Z,50.97
2023-04-14T19:25:18.940Z,50.94
2023-04-14T19:28:06.968Z,50.93
2023-04-14T19:30:53.518Z,50.91
2023-04-14T19:33:41.904Z,50.98
2023-04-14T19:36:29.390Z,50.97
2023-04-14T19:39:15.075Z,50.88
2023-04-14T19:42:01.697Z,50.77
2023-04-14T19:44:47.482Z,50.76
2023-04-14T19:47:33.120Z,50.83
2023-04-14T19:50:19.323Z,50.72
2023-04-14T19:53:05.441Z,50.71
2023-04-14T19:55:57.467Z,50.76
2023-04-14T19:58:45.546Z,50.75
2023-04-14T20:01:32.752Z,50.42
2023-04-14T20:04:18.877Z,50.73
2023-04-14T20:07:05.298Z,50.61
2023-04-14T20:09:54.688Z,50.65
2023-04-14T20:12:40.505Z,50.63
2023-04-14T20:15:26.466Z,50.55
2023-04-14T20:18:19.282Z,50.46
2023-04-14T20:21:12.883Z,50.66
2023-04-14T20:23:59.469Z,50.54
2023-04-14T20:26:46.861Z,50.49
2023-04-14T20:29:33.837Z,50.46
2023-04-14T20:32:28.727Z,50.49
2023-04-14T20:35:19.865Z,50.55
2023-04-14T20:38:06.594Z,50.54
2023-04-14T20:40:54.245Z,50.50
2023-04-14T20:43:43.651Z,50.42
2023-04-14T20:46:29.781Z,50.47
2023-04-14T20:49:18.402Z,50.42
2023-04-14T20:52:07.848Z,50.59
2023-04-14T20:54:53.299Z,50.56
2023-04-14T20:57:40.544Z,50.74
2023-04-14T21:00:26.657Z,50.69
2023-04-14T21:03:12.410Z,50.84
2023-04-14T21:05:58.156Z,50.74
2023-04-14T21:08:43.560Z,50.77
2023-04-14T21:11:32.334Z,50.79
2023-04-14T21:15:30.763Z,50.88
2023-04-14T21:17:23.602Z,50.79
2023-04-14T21:20:10.849Z,50.99
2023-04-14T21:22:57.640Z,50.78
2023-04-14T21:25:43.293Z,50.77
2023-04-14T21:28:28.980Z,50.68
2023-04-14T21:31:15.880Z,50.72
2023-04-14T21:34:01.310Z,50.76
2023-04-14T21:36:47.557Z,50.72
2023-04-14T21:39:34.223Z,50.70
2023-04-14T21:42:19.606Z,50.62
2023-04-14T21:45:06.359Z,50.68
2023-04-14T21:47:52.132Z,50.61
2023-04-14T21:50:39.549Z,50.52
2023-04-14T21:53:24.830Z,50.69
2023-04-14T21:56:12.783Z,50.57
2023-04-14T21:58:58.494Z,50.58
2023-04-14T22:01:44.054Z,50.51
2023-04-14T22:04:36.316Z,50.54
2023-04-14T22:07:22.677Z,50.46
2023-04-14T22:10:08.357Z,50.07
2023-04-14T22:12:53.941Z,50.41
2023-04-14T22:25:18.971Z,50.36
2023-04-14T22:28:04.579Z,50.40
2023-04-14T22:30:50.129Z,50.32
2023-04-14T22:33:35.970Z,50.38
2023-04-14T22:36:21.609Z,50.20
2023-04-14T22:39:07.373Z,50.36
2023-04-14T22:41:52.687Z,50.31
2023-04-14T22:44:38.308Z,50.30
2023-04-14T22:47:23.605Z,50.24
2023-04-14T22:50:09.352Z,50.11
2023-04-14T22:52:54.832Z,50.16
2023-04-14T22:55:40.487Z,50.06
2023-04-14T22:58:26.032Z,50.20
2023-04-14T23:01:21.352Z,50.24
2023-04-14T23:04:07.826Z,50.20
2023-04-14T23:06:53.195Z,50.04
2023-04-14T23:09:38.406Z,50.13
2023-04-14T23:12:23.641Z,50.15
2023-04-14T23:15:09.410Z,50.10
2023-04-14T23:17:55.388Z,50.02
2023-04-14T23:20:40.724Z,49.90
2023-04-14T23:23:26.540Z,49.94
2023-04-14T23:26:11.852Z,50.14
2023-04-14T23:28:57.243Z,50.06
2023-04-14T23:31:42.641Z,49.97
2023-04-14T23:34:28.678Z,49.84
2023-04-14T23:37:13.983Z,49.86
2023-04-14T23:39:59.238Z,49.98
2023-04-14T23:42:44.707Z,49.90
2023-04-14T23:45:36.914Z,49.90
2023-04-14T23:48:22.803Z,49.94
2023-04-14T23:51:14.449Z,49.87
2023-04-14T23:54:03.477Z,49.88
2023-04-14T23:56:49.102Z,50.09
2023-04-14T23:59:34.520Z,49.89
